Time;durP1;ratioP1;P1;durP2;ratioP2;P2;SDS_P1;SDS_P2;PMS_P1;PMS_P2;Temp;Humidity;BMP_temperature;BMP_pressure;BME280_temperature;BME280_humidity;BME280_pressure;Samples;Min_cycle;Max_cycle;Signal;HPM_P1;HPM_P2
2023/10/14 00:01:11;;;;;;;7.40;5.40;;;;;;;12.04;80.08;98951.77;105410;1254;61162;-23
2023/10/14 00:03:41;;;;;;;6.50;5.20;;;;;;;12.00;79.44;98955.58;105370;1254;61056;-23
2023/10/14 00:47:44;;;;;;;11.60;6.40;;;;;;;11.21;83.14;98905.77;105661;1259;61192;-22
2023/10/14 00:53:00;;;;;;;6.70;5.10;;;;;;;11.47;83.72;98899.86;105687;1259;74429;-23
2023/10/14 00:55:35;;;;;;;8.50;5.80;;;;;;;11.70;82.67;98895.94;105734;1254;72902;-23
2023/10/14 00:58:03;;;;;;;9.10;6.40;;;;;;;11.68;82.21;98893.89;105546;1254;61110;-23
2023/10/14 01:00:35;;;;;;;9.10;5.40;;;;;;;11.40;83.25;98892.20;105565;1253;61214;-23
2023/10/14 01:03:07;;;;;;;10.00;6.60;;;;;;;11.18;84.44;98890.41;105637;1254;73820;-23
2023/10/14 01:05:36;;;;;;;9.00;5.90;;;;;;;11.34;84.79;98885.05;105533;1254;74038;-23
2023/10/14 01:08:11;;;;;;;8.00;5.80;;;;;;;11.71;83.07;98887.19;105532;1254;73072;-23
2023/10/14 01:10:39;;;;;;;9.40;5.70;;;;;;;11.72;82.24;98888.34;105595;1258;61212;-23
2023/10/14 01:13:13;;;;;;;14.50;7.60;;;;;;;11.50;83.13;98883.45;105184;1260;61140;-23
2023/10/14 01:15:47;;;;;;;8.40;5.40;;;;;;;11.23;84.89;98885.40;105564;1254;73886;-23
2023/10/14 01:18:14;;;;;;;8.90;5.70;;;;;;;11.51;84.85;98883.16;105633;1254;74311;-23
2023/10/14 01:20:42;;;;;;;8.00;6.10;;;;;;;11.80;83.11;98878.29;105534;1254;72638;-23
2023/10/14 01:23:14;;;;;;;8.30;6.80;;;;;;;11.66;82.94;98869.36;105611;1253;61055;-23
2023/10/14 01:25:47;;;;;;;7.80;7.00;;;;;;;11.41;83.75;98867.17;105388;1259;61173;-22
2023/10/14 01:28:20;;;;;;;8.90;6.10;;;;;;;11.19;84.94;98864.43;105749;1254;72542;-23
2023/10/14 01:31:34;;;;;;;9.70;6.20;;;;;;;11.58;84.49;98863.09;105519;1259;74565;-23
2023/10/14 01:34:07;;;;;;;8.70;5.40;;;;;;;11.87;82.65;98856.68;105549;1254;72648;-23
2023/10/14 01:36:38;;;;;;;9.40;6.80;;;;;;;11.74;82.20;98850.39;105562;1254;61106;-23
2023/10/14 01:39:09;;;;;;;7.50;6.10;;;;;;;11.51;82.45;98849.31;105925;1256;61167;-22
2023/10/14 01:41:36;;;;;;;5.80;4.70;;;;;;;11.28;83.47;98844.73;105853;1254;74186;-23
2023/10/14 01:44:05;;;;;;;6.40;5.20;;;;;;;11.67;83.50;98848.74;105722;1257;74817;-23
2023/10/14 01:46:34;;;;;;;9.50;5.90;;;;;;;12.04;82.32;98851.93;105497;1258;71209;-22
2023/10/14 01:49:21;;;;;;;9.40;6.70;;;;;;;12.08;81.72;98851.02;105548;1254;61077;-23
2023/10/14 01:51:50;;;;;;;7.60;6.30;;;;;;;11.87;81.65;98852.75;105378;1254;61158;-23
2023/10/14 01:54:17;;;;;;;8.20;6.10;;;;;;;11.60;82.39;98851.81;105409;1254;74318;-23
2023/10/14 01:56:46;;;;;;;8.30;6.40;;;;;;;11.35;83.52;98848.58;105565;1256;74302;-23
2023/10/14 01:59:16;;;;;;;6.40;5.70;;;;;;;11.59;84.24;98847.55;105625;1254;72718;-23
2023/10/14 02:01:43;;;;;;;8.80;5.70;;;;;;;11.71;83.87;98845.65;105371;1254;61170;-22
2023/10/14 02:04:14;;;;;;;8.60;6.40;;;;;;;11.65;83.98;98841.05;105608;1254;61090;-22
2023/10/14 02:06:46;;;;;;;10.30;7.00;;;;;;;11.49;84.23;98836.21;105695;1253;72785;-23
2023/10/14 02:09:17;;;;;;;9.60;6.00;;;;;;;11.32;84.44;98827.16;105566;1257;74240;-22
2023/10/14 02:11:47;;;;;;;7.50;5.70;;;;;;;11.61;84.44;98825.10;105507;1254;73900;-22
2023/10/14 02:14:18;;;;;;;9.50;6.60;;;;;;;11.81;83.93;98825.59;105512;1254;61110;-23
2023/10/14 02:16:45;;;;;;;11.10;7.70;;;;;;;11.73;83.73;98827.13;105503;1259;61246;-22
2023/10/14 02:19:21;;;;;;;11.30;6.90;;;;;;;11.55;83.94;98829.33;105533;1254;73789;-23
2023/10/14 02:22:02;;;;;;;10.80;7.50;;;;;;;11.27;85.18;98830.86;105239;1259;73123;-22
2023/10/14 02:24:29;;;;;;;9.50;5.80;;;;;;;11.14;86.30;98830.63;105675;1253;73233;-23
2023/10/14 02:26:57;;;;;;;7.80;6.40;;;;;;;11.49;86.22;98827.56;105613;1252;61067;-23
2023/10/14 02:29:24;;;;;;;11.70;7.60;;;;;;;11.67;85.30;98824.45;105714;1254;61167;-23
2023/10/14 02:31:51;;;;;;;8.30;7.10;;;;;;;11.54;85.65;98823.84;105903;1255;74498;-22
2023/10/14 02:34:18;;;;;;;8.70;7.60;;;;;;;11.38;85.98;98817.41;105815;1257;74924;-23
2023/10/14 02:36:48;;;;;;;9.80;6.90;;;;;;;11.27;86.45;98815.59;105761;1254;72464;-23
2023/10/14 02:39:17;;;;;;;9.10;6.70;;;;;;;11.68;85.94;98815.27;105548;1254;61055;-23
2023/10/14 02:41:58;;;;;;;7.60;6.30;;;;;;;11.83;84.62;98808.55;105404;1256;61654;-22
2023/10/14 02:44:32;;;;;;;8.00;5.70;;;;;;;11.73;84.24;98807.86;105394;1254;73524;-23
2023/10/14 02:47:08;;;;;;;11.50;7.70;;;;;;;11.45;85.12;98806.57;105379;1254;72977;-23
2023/10/14 02:49:42;;;;;;;7.00;5.40;;;;;;;11.30;85.74;98806.32;105344;1254;72737;-23
2023/10/14 02:52:11;;;;;;;8.90;5.90;;;;;;;11.78;85.13;98804.09;105503;1252;61103;-23
2023/10/14 02:54:44;;;;;;;8.70;6.00;;;;;;;12.23;83.80;98798.58;105525;1259;61067;-23
2023/10/14 02:57:23;;;;;;;10.30;6.50;;;;;;;12.14;83.18;98798.79;105485;1258;73533;-23
2023/10/14 02:59:51;;;;;;;10.60;8.00;;;;;;;11.92;83.64;98800.62;105514;1254;74898;-23
2023/10/14 03:05:08;;;;;;;7.90;6.00;;;;;;;11.33;86.91;98794.26;105241;1254;62042;-23
2023/10/14 03:07:50;;;;;;;7.20;6.20;;;;;;;11.72;86.18;98786.93;105549;1252;61176;-23
2023/10/14 03:12:50;;;;;;;8.90;7.30;;;;;;;11.65;86.16;98792.56;105583;1259;74120;-23
2023/10/14 03:15:19;;;;;;;10.50;8.40;;;;;;;11.48;86.54;98789.42;105248;1254;73218;-23
2023/10/14 03:17:55;;;;;;;10.10;5.30;;;;;;;11.36;87.15;98787.02;105311;1254;61180;-23
2023/10/14 03:23:00;;;;;;;10.10;7.00;;;;;;;12.28;84.04;98767.07;105674;1254;74333;-23
2023/10/14 03:25:27;;;;;;;11.40;8.00;;;;;;;12.16;83.58;98760.92;105475;1256;74231;-22
2023/10/14 03:28:38;;;;;;;10.60;7.50;;;;;;;11.92;84.09;98761.80;105462;1254;71683;-22
2023/10/14 03:30:55;;;;;;;9.50;7.90;;;;;;;11.59;85.11;98765.33;105529;1254;61138;-22
2023/10/14 03:33:32;;;;;;;10.30;6.80;;;;;;;11.45;86.95;98769.52;105513;1254;61163;-22
2023/10/14 03:41:18;;;;;;;11.10;7.50;;;;;;;11.85;85.31;98765.96;105482;1254;72467;-23
2023/10/14 03:46:23;;;;;;;11.10;6.80;;;;;;;11.44;87.36;98765.08;105589;1259;61157;-22
2023/10/14 03:48:54;;;;;;;10.20;7.10;;;;;;;11.87;86.57;98759.81;105393;1259;72527;-23
2023/10/14 03:51:25;;;;;;;11.60;8.20;;;;;;;12.03;85.03;98753.70;105651;1254;74238;-22
2023/10/14 03:53:58;;;;;;;13.10;8.60;;;;;;;11.82;85.30;98750.90;105351;1254;73283;-22
2023/10/14 03:56:25;;;;;;;10.20;8.60;;;;;;;11.56;86.66;98752.36;105379;1260;61289;-22
2023/10/14 03:58:55;;;;;;;9.40;6.60;;;;;;;11.43;88.12;98750.40;105711;1259;61166;-22
2023/10/14 04:01:24;;;;;;;11.50;7.50;;;;;;;11.95;86.74;98742.42;105720;1254;73923;-23
2023/10/14 04:03:52;;;;;;;10.40;7.50;;;;;;;12.08;85.52;98738.28;105314;1254;74359;-22
2023/10/14 04:06:20;;;;;;;11.20;8.40;;;;;;;11.97;84.97;98737.06;105623;1253;71186;-22
2023/10/14 04:08:48;;;;;;;12.90;9.40;;;;;;;11.74;85.48;98732.85;105581;1254;61160;-22
2023/10/14 04:11:26;;;;;;;8.80;6.50;;;;;;;11.53;86.47;98727.08;105524;1259;61691;-22
2023/10/14 04:14:02;;;;;;;12.00;7.10;;;;;;;11.96;86.04;98727.36;105242;1254;73880;-22
2023/10/14 04:21:59;;;;;;;10.80;8.20;;;;;;;11.89;85.29;98722.79;105774;1252;61031;-22
2023/10/14 04:27:22;;;;;;;7.30;6.10;;;;;;;11.94;86.76;98720.98;105679;1254;73895;-22
2023/10/14 04:29:57;;;;;;;9.40;7.50;;;;;;;12.23;85.14;98721.30;105647;1259;74539;-22
2023/10/14 04:32:28;;;;;;;12.00;8.80;;;;;;;12.13;85.31;98721.34;105538;1254;72647;-22
2023/10/14 04:34:57;;;;;;;10.50;8.00;;;;;;;11.98;85.39;98712.20;105522;1254;61062;-22
2023/10/14 04:37:27;;;;;;;8.20;6.30;;;;;;;11.75;85.98;98710.66;105604;1256;61107;-22
2023/10/14 04:40:15;;;;;;;10.50;8.10;;;;;;;11.86;87.01;98714.70;105486;1254;73728;-22
2023/10/14 04:42:44;;;;;;;11.50;7.80;;;;;;;12.27;85.69;98711.18;105476;1258;74223;-22
2023/10/14 04:45:14;;;;;;;13.60;8.00;;;;;;;12.26;85.24;98712.44;105532;1254;72457;-23
2023/10/14 04:47:44;;;;;;;10.50;7.70;;;;;;;12.12;85.21;98712.39;105608;1253;61084;-22
2023/10/14 04:50:15;;;;;;;9.40;6.10;;;;;;;11.96;85.68;98713.13;105571;1257;61101;-22
2023/10/14 04:52:48;;;;;;;10.50;6.70;;;;;;;12.41;85.56;98717.86;105652;1254;72826;-22
2023/10/14 04:55:36;;;;;;;12.60;6.80;;;;;;;12.88;83.93;98717.54;105522;1257;74138;-22
2023/10/14 04:58:14;;;;;;;12.00;7.70;;;;;;;12.84;83.32;98716.95;105541;1254;73048;-22
2023/10/14 05:00:42;;;;;;;12.00;9.30;;;;;;;12.54;84.71;98715.05;105530;1254;61192;-22
2023/10/14 05:03:14;;;;;;;10.90;8.50;;;;;;;12.37;85.50;98711.98;105396;1259;61046;-22
2023/10/14 05:05:43;;;;;;;11.10;8.10;;;;;;;12.25;86.69;98713.41;105564;1254;74461;-23
2023/10/14 05:08:15;;;;;;;13.30;8.80;;;;;;;12.57;86.23;98713.20;105361;1254;74348;-22
2023/10/14 05:10:44;;;;;;;10.70;8.30;;;;;;;12.83;85.11;98716.89;105535;1253;73081;-22
2023/10/14 05:13:12;;;;;;;10.80;7.30;;;;;;;12.86;84.75;98716.52;105428;1253;61253;-22
2023/10/14 05:15:42;;;;;;;11.00;7.70;;;;;;;12.72;84.98;98715.15;105770;1254;61208;-22
2023/10/14 05:18:27;;;;;;;10.50;7.70;;;;;;;12.76;85.55;98719.41;105282;1254;73665;-22
2023/10/14 05:23:30;;;;;;;11.00;8.40;;;;;;;13.04;84.33;98716.73;105908;1254;72735;-22
2023/10/14 05:25:59;;;;;;;11.30;8.60;;;;;;;12.90;84.68;98707.65;105696;1254;61177;-22
2023/10/14 05:28:31;;;;;;;9.80;7.20;;;;;;;12.77;85.54;98701.70;105416;1254;61063;-22
2023/10/14 05:31:00;;;;;;;17.00;8.60;;;;;;;13.10;85.03;98696.67;105606;1254;73624;-23
2023/10/14 05:33:27;;;;;;;11.50;8.10;;;;;;;13.18;84.11;98696.27;105505;1254;74312;-22
2023/10/14 05:35:59;;;;;;;12.40;8.80;;;;;;;13.07;84.51;98696.77;105543;1253;72548;-22
2023/10/14 05:38:29;;;;;;;11.80;6.50;;;;;;;12.85;85.37;98696.41;105423;1252;61153;-22
2023/10/14 05:41:00;;;;;;;10.80;7.90;;;;;;;12.83;86.31;98699.59;105463;1254;61173;-22
2023/10/14 05:43:27;;;;;;;12.20;7.50;;;;;;;13.19;84.71;98692.83;105249;1252;72945;-23
2023/10/14 05:45:54;;;;;;;13.40;9.00;;;;;;;13.07;84.86;98696.58;105589;1254;74314;-22
2023/10/14 05:48:30;;;;;;;11.90;8.40;;;;;;;12.95;85.10;98699.00;105569;1254;72470;-22
2023/10/14 05:50:57;;;;;;;14.50;8.40;;;;;;;12.93;85.80;98699.87;105495;1254;61750;-22
2023/10/14 05:53:25;;;;;;;13.20;8.30;;;;;;;13.26;84.61;98699.28;105476;1259;61112;-22
2023/10/14 05:56:09;;;;;;;16.10;9.50;;;;;;;13.33;84.02;98699.80;105509;1254;73803;-22
2023/10/14 05:58:37;;;;;;;11.60;8.50;;;;;;;13.19;84.20;98699.15;105413;1256;74477;-22
2023/10/14 06:01:09;;;;;;;13.60;7.20;;;;;;;12.96;85.66;98699.73;105429;1254;72440;-22
2023/10/14 06:03:37;;;;;;;11.10;8.00;;;;;;;13.26;85.43;98704.55;105207;1254;61245;-22
2023/10/14 06:06:09;;;;;;;12.30;8.00;;;;;;;13.48;84.33;98707.33;105745;1259;61276;-22
2023/10/14 06:08:37;;;;;;;13.70;8.30;;;;;;;13.41;84.66;98707.42;105949;1254;72917;-23
2023/10/14 06:11:07;;;;;;;14.40;6.70;;;;;;;13.28;85.52;98701.16;105902;1256;74291;-23
2023/10/14 06:13:35;;;;;;;13.00;7.90;;;;;;;13.65;84.57;98700.56;105462;1258;72013;-23
2023/10/14 06:16:09;;;;;;;11.10;7.10;;;;;;;14.06;82.80;98700.45;105558;1254;61252;-23
2023/10/14 06:18:40;;;;;;;10.50;7.70;;;;;;;14.07;82.10;98700.20;105575;1252;61176;-22
2023/10/14 06:21:10;;;;;;;12.10;8.10;;;;;;;13.96;82.36;98692.28;105270;1254;72734;-23
2023/10/14 06:23:46;;;;;;;10.50;7.00;;;;;;;14.02;83.04;98698.15;105584;1256;74297;-23
2023/10/14 06:26:17;;;;;;;9.30;6.40;;;;;;;14.43;81.99;98699.13;105527;1254;72457;-23
2023/10/14 06:28:45;;;;;;;12.80;7.30;;;;;;;14.66;80.46;98694.89;105467;1254;61158;-22
2023/10/14 06:31:12;;;;;;;11.40;7.70;;;;;;;14.61;81.06;98695.09;105734;1254;61150;-22
2023/10/14 06:33:43;;;;;;;10.00;5.90;;;;;;;14.47;81.21;98692.79;105894;1254;74243;-22
2023/10/14 06:36:14;;;;;;;12.00;6.30;;;;;;;14.74;81.09;98695.89;105870;1254;74281;-23
2023/10/14 06:38:44;;;;;;;10.60;6.50;;;;;;;15.19;79.11;98697.09;105545;1254;74338;-23
2023/10/14 06:41:16;;;;;;;10.00;6.20;;;;;;;15.32;78.03;98692.09;105484;1259;61849;-23
2023/10/14 06:43:47;;;;;;;9.10;5.90;;;;;;;15.38;78.25;98688.09;105530;1260;61626;-23
2023/10/14 06:46:16;;;;;;;7.40;5.10;;;;;;;15.42;77.91;98687.63;105407;1254;75802;-23
2023/10/14 06:48:45;;;;;;;9.00;5.40;;;;;;;15.78;77.81;98684.52;105566;1254;75923;-23
2023/10/14 06:51:13;;;;;;;8.10;6.30;;;;;;;16.13;74.70;98680.52;105550;1254;74509;-23
2023/10/14 06:53:40;;;;;;;7.60;5.00;;;;;;;16.21;74.10;98677.41;105571;1254;61993;-23
2023/10/14 06:56:11;;;;;;;8.10;5.90;;;;;;;16.05;74.43;98676.85;105506;1259;61842;-23
2023/10/14 06:58:39;;;;;;;9.00;6.00;;;;;;;16.20;74.83;98671.18;105738;1254;75761;-23
2023/10/14 07:01:07;;;;;;;11.50;5.50;;;;;;;16.29;73.80;98667.64;105667;1259;75638;-23
2023/10/14 07:03:34;;;;;;;9.40;4.30;;;;;;;16.41;73.98;98665.73;105685;1256;74238;-23
2023/10/14 07:06:04;;;;;;;8.30;5.10;;;;;;;16.57;72.61;98662.18;105424;1252;61940;-23
2023/10/14 07:08:32;;;;;;;9.90;5.40;;;;;;;16.84;71.12;98662.11;105514;1252;61148;-23
2023/10/14 07:11:00;;;;;;;10.80;5.40;;;;;;;16.87;71.51;98662.55;105783;1254;75657;-23
2023/10/14 07:13:28;;;;;;;8.70;5.20;;;;;;;16.89;71.07;98656.98;105616;1254;75965;-23
2023/10/14 07:15:55;;;;;;;10.30;5.00;;;;;;;16.90;70.98;98660.07;105538;1254;74382;-23
2023/10/14 07:18:23;;;;;;;8.90;5.50;;;;;;;16.86;71.09;98659.70;105480;1254;62122;-22
2023/10/14 07:20:59;;;;;;;7.80;4.60;;;;;;;17.03;70.80;98657.85;105573;1256;61710;-22
2023/10/14 07:23:27;;;;;;;8.50;4.70;;;;;;;17.19;69.64;98657.10;105424;1254;74325;-23
2023/10/14 07:25:54;;;;;;;8.90;5.40;;;;;;;17.27;68.28;98654.84;105480;1259;76034;-22
2023/10/14 07:28:22;;;;;;;7.30;4.50;;;;;;;17.48;68.67;98651.60;105601;1254;74615;-22
2023/10/14 07:30:49;;;;;;;10.00;4.00;;;;;;;17.60;67.82;98647.88;105802;1252;62121;-22
2023/10/14 07:33:19;;;;;;;6.90;4.40;;;;;;;17.52;67.39;98643.73;105901;1256;61143;-22
2023/10/14 07:35:47;;;;;;;6.70;4.60;;;;;;;17.50;67.66;98639.56;105700;1254;76131;-22
2023/10/14 07:38:15;;;;;;;6.80;4.80;;;;;;;17.45;66.78;98637.91;105936;1254;76240;-23
2023/10/14 07:40:42;;;;;;;10.40;4.60;;;;;;;17.40;67.75;98636.46;105809;1254;74388;-22
2023/10/14 07:43:12;;;;;;;5.60;3.60;;;;;;;17.66;67.14;98626.25;105506;1254;61070;-22
2023/10/14 07:45:42;;;;;;;7.40;4.70;;;;;;;17.75;66.08;98623.17;105516;1259;61882;-22
2023/10/14 07:48:10;;;;;;;7.20;3.90;;;;;;;17.91;65.77;98619.33;105697;1254;75436;-22
2023/10/14 07:50:39;;;;;;;7.40;5.10;;;;;;;17.95;65.20;98615.30;105454;1254;76007;-22
2023/10/14 07:53:07;;;;;;;11.00;5.10;;;;;;;18.03;65.44;98615.33;105249;1261;73890;-22
2023/10/14 07:55:41;;;;;;;8.10;4.70;;;;;;;18.22;65.06;98608.96;105530;1254;61177;-22
2023/10/14 07:58:08;;;;;;;7.70;4.60;;;;;;;18.22;64.15;98605.95;105487;1252;61141;-22
2023/10/14 08:00:55;;;;;;;7.30;3.90;;;;;;;18.25;64.59;98608.42;105554;1254;73817;-22
2023/10/14 08:03:23;;;;;;;7.80;4.50;;;;;;;18.31;63.86;98602.15;105627;1258;74767;-23
2023/10/14 08:05:59;;;;;;;6.90;4.10;;;;;;;18.32;63.37;98605.66;105500;1259;72633;-22
2023/10/14 08:08:30;;;;;;;7.30;4.40;;;;;;;18.54;63.22;98605.60;105418;1254;61237;-22
2023/10/14 08:10:58;;;;;;;8.20;3.90;;;;;;;18.71;61.89;98605.06;105430;1259;61054;-22
2023/10/14 08:13:26;;;;;;;6.80;4.00;;;;;;;18.71;61.95;98602.71;105241;1254;74037;-23
2023/10/14 08:15:54;;;;;;;8.90;4.50;;;;;;;18.90;61.61;98598.00;105599;1259;74386;-23
2023/10/14 08:18:25;;;;;;;5.30;3.80;;;;;;;18.97;60.75;98596.05;105508;1260;72118;-22
2023/10/14 08:20:56;;;;;;;12.20;4.80;;;;;;;18.95;60.88;98596.68;105484;1254;61096;-22
2023/10/14 08:23:24;;;;;;;7.00;3.40;;;;;;;19.14;61.02;98593.31;105350;1259;61176;-23
2023/10/14 08:25:54;;;;;;;9.20;4.60;;;;;;;19.20;60.10;98587.80;105374;1254;74449;-22
2023/10/14 08:28:27;;;;;;;5.10;3.30;;;;;;;19.29;59.76;98590.36;105489;1254;74329;-22
2023/10/14 08:30:55;;;;;;;9.40;4.30;;;;;;;19.20;59.14;98587.55;105626;1254;71472;-22
2023/10/14 08:33:24;;;;;;;5.50;3.60;;;;;;;19.22;60.12;98593.33;105666;1253;61042;-22
2023/10/14 08:35:52;;;;;;;6.60;3.80;;;;;;;19.37;59.35;98588.97;105600;1261;61629;-22
2023/10/14 08:38:22;;;;;;;8.90;3.90;;;;;;;19.45;59.29;98589.45;105647;1254;73801;-22
2023/10/14 08:40:53;;;;;;;9.30;4.00;;;;;;;19.50;58.42;98583.15;105521;1259;72865;-22
2023/10/14 08:43:21;;;;;;;12.10;4.50;;;;;;;19.52;58.38;98586.85;105340;1254;72621;-22
2023/10/14 08:45:49;;;;;;;10.50;4.10;;;;;;;19.64;58.32;98586.35;105518;1260;61202;-22
2023/10/14 08:48:17;;;;;;;5.80;3.70;;;;;;;19.82;58.23;98590.30;105713;1254;61051;-23
2023/10/14 08:50:49;;;;;;;8.10;2.90;;;;;;;19.94;57.50;98582.32;105518;1259;73969;-23
2023/10/14 08:53:16;;;;;;;7.60;3.40;;;;;;;19.89;56.75;98574.54;105295;1254;74328;-22
2023/10/14 08:55:47;;;;;;;6.70;3.80;;;;;;;19.90;56.63;98577.42;105475;1254;72715;-22
2023/10/14 08:58:14;;;;;;;8.50;3.60;;;;;;;19.90;56.77;98579.55;105402;1254;61048;-22
2023/10/14 09:00:43;;;;;;;8.40;3.70;;;;;;;19.97;56.54;98581.31;105458;1259;61190;-23
2023/10/14 09:03:11;;;;;;;9.20;3.70;;;;;;;20.02;56.52;98577.34;105390;1259;72389;-22
2023/10/14 09:05:44;;;;;;;7.10;2.50;;;;;;;20.08;55.97;98575.83;105371;1254;74331;-23
2023/10/14 09:08:14;;;;;;;4.50;3.20;;;;;;;20.01;56.24;98571.61;105526;1253;72661;-22
2023/10/14 09:10:42;;;;;;;7.10;3.30;;;;;;;20.24;56.13;98572.79;105598;1259;61169;-22
2023/10/14 09:13:10;;;;;;;7.40;3.00;;;;;;;20.49;55.55;98570.91;105630;1254;61101;-23
2023/10/14 09:15:39;;;;;;;7.40;3.40;;;;;;;20.61;54.47;98564.45;105411;1259;72661;-23
2023/10/14 09:18:16;;;;;;;7.00;3.60;;;;;;;20.72;54.60;98558.82;105376;1260;74325;-23
2023/10/14 09:20:44;;;;;;;4.60;2.80;;;;;;;20.83;54.02;98562.21;105462;1257;72621;-23
2023/10/14 09:23:16;;;;;;;6.10;3.20;;;;;;;20.97;53.22;98552.16;105665;1254;61079;-22
2023/10/14 09:25:52;;;;;;;8.10;3.50;;;;;;;20.91;52.22;98550.05;105466;1260;61074;-23
2023/10/14 09:28:20;;;;;;;5.80;3.10;;;;;;;20.88;52.33;98553.30;105343;1260;72349;-23
2023/10/14 09:30:49;;;;;;;6.10;3.00;;;;;;;20.98;52.37;98550.27;105416;1254;74257;-23
2023/10/14 09:33:28;;;;;;;3.90;3.00;;;;;;;21.16;52.02;98547.98;105393;1254;72431;-23
2023/10/14 09:35:58;;;;;;;5.10;2.90;;;;;;;21.27;51.07;98540.02;105258;1254;61058;-23
2023/10/14 09:38:27;;;;;;;6.30;2.70;;;;;;;21.51;50.78;98533.55;105414;1259;61250;-23
2023/10/14 09:40:57;;;;;;;6.80;3.10;;;;;;;21.78;49.46;98528.48;105624;1259;71449;-24
2023/10/14 09:43:24;;;;;;;6.40;2.50;;;;;;;21.81;49.24;98523.08;105653;1254;74195;-23
2023/10/14 09:48:04;;;;;;;4.20;2.60;;;;;;;21.70;49.04;98516.10;102613;1294;599976;-22
2023/10/14 09:50:32;;;;;;;5.90;2.60;;;;;;;21.88;49.09;98516.93;104878;1265;61142;-22
2023/10/14 09:53:01;;;;;;;7.50;3.00;;;;;;;22.13;48.30;98511.59;104708;1273;61136;-22
2023/10/14 09:55:29;;;;;;;7.80;2.80;;;;;;;22.27;47.49;98505.27;104874;1267;70686;-23
2023/10/14 09:57:56;;;;;;;7.90;2.90;;;;;;;22.12;47.02;98493.70;104806;1267;73059;-23
2023/10/14 10:00:25;;;;;;;10.30;2.80;;;;;;;22.12;47.02;98487.57;104754;1272;71810;-23
2023/10/14 10:02:53;;;;;;;5.10;2.60;;;;;;;22.21;46.93;98486.67;102674;1269;61285;-23
2023/10/14 10:13:03;;;;;;;5.40;2.30;;;;;;;22.63;46.16;98468.24;102711;1289;600156;-24
2023/10/14 10:15:35;;;;;;;5.70;2.80;;;;;;;22.84;45.57;98460.05;104883;1264;61273;-23
2023/10/14 10:18:05;;;;;;;9.50;2.80;;;;;;;23.03;45.60;98460.29;104844;1270;61128;-23
2023/10/14 10:20:36;;;;;;;5.20;2.40;;;;;;;23.19;45.62;98456.66;104490;1273;72241;-24
2023/10/14 10:23:06;;;;;;;3.60;2.20;;;;;;;23.41;45.15;98454.84;104808;1270;74292;-23
2023/10/14 10:25:36;;;;;;;7.50;3.00;;;;;;;23.52;44.78;98449.88;102307;1272;3044609;-24
2023/10/14 10:28:26;;;;;;;6.50;2.80;;;;;;;23.46;44.94;98443.98;105065;1267;61168;-23
2023/10/14 10:30:57;;;;;;;4.00;2.60;;;;;;;23.28;44.26;98437.00;105143;1268;61147;-24
2023/10/14 10:33:49;;;;;;;6.00;2.70;;;;;;;23.02;44.96;98441.35;104875;1264;72299;-23
2023/10/14 10:36:28;;;;;;;5.90;2.30;;;;;;;22.96;45.44;98438.16;105110;1270;73166;-23
2023/10/14 10:39:15;;;;;;;5.90;2.60;;;;;;;22.89;45.79;98431.70;104898;1271;72690;-23
2023/10/14 10:41:49;;;;;;;7.20;2.70;;;;;;;23.01;45.61;98428.21;104904;1267;61151;-23
2023/10/14 10:44:18;;;;;;;7.80;2.80;;;;;;;23.18;45.24;98421.84;104869;1267;61034;-23
2023/10/14 10:46:48;;;;;;;5.80;3.00;;;;;;;23.05;45.49;98415.14;105208;1267;73008;-23
2023/10/14 10:49:48;;;;;;;6.00;3.10;;;;;;;23.15;45.38;98413.73;104933;1271;73163;-23
2023/10/14 10:52:16;;;;;;;7.00;2.90;;;;;;;23.10;45.60;98416.36;105122;1267;72699;-23
2023/10/14 10:54:45;;;;;;;7.60;2.70;;;;;;;23.22;45.29;98408.10;105179;1264;61148;-23
2023/10/14 10:57:13;;;;;;;7.60;3.20;;;;;;;22.94;45.62;98407.40;104958;1269;61755;-23
2023/10/14 11:07:25;;;;;;;3.40;2.10;;;;;;;23.67;44.09;98392.71;102639;1292;600248;-22
2023/10/14 11:09:53;;;;;;;8.00;3.10;;;;;;;23.54;43.79;98386.48;104838;1267;61120;-22
2023/10/14 11:12:21;;;;;;;5.50;3.20;;;;;;;23.60;43.56;98390.52;104830;1267;61192;-22
2023/10/14 11:14:49;;;;;;;4.10;2.30;;;;;;;23.67;43.60;98385.48;104717;1266;73515;-22
2023/10/14 11:24:58;;;;;;;3.70;1.80;;;;;;;23.64;44.05;98382.76;102673;1295;599401;-22
2023/10/14 11:27:30;;;;;;;8.40;2.60;;;;;;;23.43;43.54;98382.11;104954;1267;61085;-22
2023/10/14 11:29:58;;;;;;;3.40;2.20;;;;;;;23.28;44.08;98381.98;105237;1266;61150;-22
2023/10/14 11:32:26;;;;;;;5.50;3.30;;;;;;;23.16;44.12;98374.63;105162;1260;72331;-22
2023/10/14 11:34:55;;;;;;;4.00;2.30;;;;;;;23.20;44.13;98371.97;105124;1260;74310;-22
2023/10/14 11:37:26;;;;;;;6.60;2.60;;;;;;;23.11;43.83;98365.95;103547;1260;3021237;-23
2023/10/14 11:39:55;;;;;;;5.50;3.00;;;;;;;23.06;43.86;98357.67;105118;1260;61569;-22
2023/10/14 11:42:23;;;;;;;7.00;2.80;;;;;;;23.13;43.83;98360.64;105265;1261;61144;-22
2023/10/14 11:52:32;;;;;;;5.50;3.00;;;;;;;23.57;43.10;98346.06;102682;1290;600159;-22
2023/10/14 11:55:00;;;;;;;5.70;2.80;;;;;;;23.75;43.10;98343.10;104901;1266;61241;-22
2023/10/14 11:57:30;;;;;;;4.30;2.20;;;;;;;23.76;42.78;98342.98;104826;1266;61026;-22
2023/10/14 11:59:58;;;;;;;8.10;2.40;;;;;;;23.75;42.76;98339.45;104845;1264;72218;-22
2023/10/14 12:10:06;;;;;;;4.80;2.80;;;;;;;23.51;44.14;98325.05;102618;1292;600154;-22
2023/10/14 12:12:34;;;;;;;3.50;2.30;;;;;;;23.48;43.92;98325.83;104769;1272;61213;-22
2023/10/14 12:15:05;;;;;;;4.60;2.40;;;;;;;23.54;43.59;98317.54;104834;1266;61168;-22
2023/10/14 12:17:34;;;;;;;5.90;3.10;;;;;;;23.67;43.45;98317.14;104802;1266;71221;-23
2023/10/14 12:27:40;;;;;;;7.60;3.20;;;;;;;23.65;43.35;98304.94;102693;1292;600336;-22
2023/10/14 12:30:28;;;;;;;6.90;3.00;;;;;;;23.65;43.51;98303.60;104881;1266;61025;-22
2023/10/14 12:40:36;;;;;;;5.90;3.10;;;;;;;23.72;42.97;98283.29;102690;1295;600083;-22
2023/10/14 12:43:05;;;;;;;5.00;2.70;;;;;;;23.45;43.18;98285.83;104955;1263;61187;-22
2023/10/14 12:53:12;;;;;;;6.50;3.00;;;;;;;23.54;43.49;98276.29;102536;1293;600192;-22
2023/10/14 12:55:44;;;;;;;5.70;2.70;;;;;;;23.59;43.44;98277.48;104841;1267;61221;-22
2023/10/14 12:58:12;;;;;;;3.90;2.10;;;;;;;23.60;43.06;98270.84;104777;1266;61063;-22
2023/10/14 13:00:42;;;;;;;5.80;2.90;;;;;;;23.40;43.23;98269.44;104901;1272;72232;-22
2023/10/14 13:03:10;;;;;;;7.60;3.20;;;;;;;23.40;43.53;98268.66;104717;1267;74389;-22
2023/10/14 13:05:39;;;;;;;5.20;3.00;;;;;;;23.46;43.49;98266.20;103081;1261;3046464;-23
2023/10/14 13:08:07;;;;;;;5.20;3.00;;;;;;;23.55;43.32;98263.28;105304;1258;61164;-22
2023/10/14 13:10:36;;;;;;;4.70;2.40;;;;;;;23.35;43.61;98260.63;105256;1263;61093;-22
2023/10/14 13:13:04;;;;;;;5.20;3.30;;;;;;;23.07;44.31;98256.20;105514;1261;71031;-22
2023/10/14 13:15:35;;;;;;;6.90;3.40;;;;;;;23.29;44.09;98255.55;105278;1263;73175;-23
2023/10/14 13:25:45;;;;;;;5.20;2.80;;;;;;;23.17;44.43;98236.39;102677;1293;599387;-22
2023/10/14 13:28:14;;;;;;;6.70;2.90;;;;;;;23.13;44.61;98239.04;104803;1269;61216;-22
2023/10/14 13:30:45;;;;;;;5.10;2.90;;;;;;;23.14;44.69;98230.57;104867;1269;61177;-22
2023/10/14 13:33:16;;;;;;;4.60;3.20;;;;;;;23.13;44.63;98223.20;104863;1272;70999;-23
2023/10/14 13:35:45;;;;;;;5.20;2.60;;;;;;;23.11;44.94;98223.10;104739;1266;73120;-24
2023/10/14 13:45:56;;;;;;;5.80;2.60;;;;;;;22.98;45.49;98210.10;102881;1292;599463;-22
2023/10/14 13:48:24;;;;;;;7.60;3.90;;;;;;;22.93;45.64;98208.54;104890;1267;61126;-22
2023/10/14 13:58:35;;;;;;;7.40;3.70;;;;;;;22.83;46.10;98213.04;102667;1293;600117;-22
2023/10/14 14:01:07;;;;;;;7.10;3.60;;;;;;;22.65;46.48;98213.64;104989;1266;61110;-22
2023/10/14 14:03:38;;;;;;;5.70;3.50;;;;;;;22.63;46.66;98219.48;104803;1269;61174;-22
2023/10/14 14:06:07;;;;;;;6.00;3.80;;;;;;;22.68;46.54;98220.10;104898;1270;72243;-22
2023/10/14 14:08:35;;;;;;;11.20;3.90;;;;;;;22.63;46.74;98220.65;104944;1269;73044;-22
2023/10/14 14:11:06;;;;;;;7.90;3.20;;;;;;;22.63;46.92;98227.88;102621;1269;3155199;-22
2023/10/14 14:13:34;;;;;;;8.30;4.30;;;;;;;22.58;47.01;98221.53;104887;1266;61237;-22
2023/10/14 14:16:02;;;;;;;6.70;3.60;;;;;;;22.60;47.17;98220.83;105596;1259;61253;-23